sensor_id;sensor_type;location;lat;lon;timestamp;P1;durP1;ratioP1;P2;durP2;ratioP2
7563;SDS011;3823;53.586;10.040;2023-07-29T04:01:28;15.65;;;11.93;;
7563;SDS011;3823;53.586;10.040;2023-07-29T04:03:53;18.70;;;13.82;;
7563;SDS011;3823;53.586;10.040;2023-07-29T04:06:19;14.13;;;11.75;;
7563;SDS011;3823;53.586;10.040;2023-07-29T04:08:45;15.80;;;12.88;;
7563;SDS011;3823;53.586;10.040;2023-07-29T04:11:11;14.38;;;12.73;;
7563;SDS011;3823;53.586;10.040;2023-07-29T04:13:36;22.67;;;14.88;;
7563;SDS011;3823;53.586;10.040;2023-07-29T04:16:02;14.88;;;13.32;;
7563;SDS011;3823;53.586;10.040;2023-07-29T04:18:29;19.33;;;14.27;;
7563;SDS011;3823;53.586;10.040;2023-07-29T04:20:54;15.40;;;13.73;;
7563;SDS011;3823;53.586;10.040;2023-07-29T04:23:20;18.25;;;15.68;;
7563;SDS011;3823;53.586;10.040;2023-07-29T04:25:45;19.13;;;14.45;;
7563;SDS011;3823;53.586;10.040;2023-07-29T04:28:11;16.88;;;15.07;;
7563;SDS011;3823;53.586;10.040;2023-07-29T04:30:36;22.35;;;16.00;;
7563;SDS011;3823;53.586;10.040;2023-07-29T04:33:02;20.15;;;15.70;;
7563;SDS011;3823;53.586;10.040;2023-07-29T04:35:28;18.80;;;15.48;;
7563;SDS011;3823;53.586;10.040;2023-07-29T04:37:54;19.17;;;15.60;;
7563;SDS011;3823;53.586;10.040;2023-07-29T04:40:19;28.48;;;22.17;;
7563;SDS011;3823;53.586;10.040;2023-07-29T04:42:45;19.75;;;16.80;;
7563;SDS011;3823;53.586;10.040;2023-07-29T04:45:11;20.65;;;18.45;;
7563;SDS011;3823;53.586;10.040;2023-07-29T04:47:36;23.50;;;18.08;;
7563;SDS011;3823;53.586;10.040;2023-07-29T04:50:02;21.98;;;18.15;;
7563;SDS011;3823;53.586;10.040;2023-07-29T04:52:28;22.77;;;19.52;;
7563;SDS011;3823;53.586;10.040;2023-07-29T04:54:53;21.70;;;18.80;;
7563;SDS011;3823;53.586;10.040;2023-07-29T04:57:19;30.35;;;21.17;;
7563;SDS011;3823;53.586;10.040;2023-07-29T04:59:44;23.63;;;20.00;;
7563;SDS011;3823;53.586;10.040;2023-07-29T05:02:10;26.00;;;20.75;;
7563;SDS011;3823;53.586;10.040;2023-07-29T05:04:36;28.13;;;20.90;;
7563;SDS011;3823;53.586;10.040;2023-07-29T05:07:01;33.75;;;22.63;;
7563;SDS011;3823;53.586;10.040;2023-07-29T05:09:27;29.05;;;21.40;;
7563;SDS011;3823;53.586;10.040;2023-07-29T05:11:53;29.50;;;21.48;;
7563;SDS011;3823;53.586;10.040;2023-07-29T05:14:18;25.60;;;20.95;;
7563;SDS011;3823;53.586;10.040;2023-07-29T05:16:44;27.73;;;22.25;;
7563;SDS011;3823;53.586;10.040;2023-07-29T05:19:10;28.60;;;21.35;;
7563;SDS011;3823;53.586;10.040;2023-07-29T05:21:37;27.55;;;20.65;;
7563;SDS011;3823;53.586;10.040;2023-07-29T05:24:03;23.98;;;19.63;;
7563;SDS011;3823;53.586;10.040;2023-07-29T05:26:29;24.55;;;20.35;;
7563;SDS011;3823;53.586;10.040;2023-07-29T05:28:54;23.13;;;19.00;;
7563;SDS011;3823;53.586;10.040;2023-07-29T05:31:20;27.23;;;20.75;;
7563;SDS011;3823;53.586;10.040;2023-07-29T05:33:46;24.83;;;19.23;;
7563;SDS011;3823;53.586;10.040;2023-07-29T05:36:12;23.48;;;19.15;;
7563;SDS011;3823;53.586;10.040;2023-07-29T05:38:37;26.13;;;19.52;;
7563;SDS011;3823;53.586;10.040;2023-07-29T05:41:03;24.85;;;19.48;;
7563;SDS011;3823;53.586;10.040;2023-07-29T05:43:28;24.08;;;19.55;;
7563;SDS011;3823;53.586;10.040;2023-07-29T05:45:54;25.30;;;20.92;;
7563;SDS011;3823;53.586;10.040;2023-07-29T05:48:19;27.17;;;21.02;;
7563;SDS011;3823;53.586;10.040;2023-07-29T05:50:45;27.17;;;21.00;;
7563;SDS011;3823;53.586;10.040;2023-07-29T05:53:10;26.67;;;21.95;;
7563;SDS011;3823;53.586;10.040;2023-07-29T05:55:36;23.65;;;19.77;;
7563;SDS011;3823;53.586;10.040;2023-07-29T05:58:01;27.25;;;21.63;;
7563;SDS011;3823;53.586;10.040;2023-07-29T06:00:27;28.35;;;21.70;;
7563;SDS011;3823;53.586;10.040;2023-07-29T06:02:52;28.98;;;23.10;;
7563;SDS011;3823;53.586;10.040;2023-07-29T06:05:18;30.15;;;24.20;;
7563;SDS011;3823;53.586;10.040;2023-07-29T06:07:43;33.30;;;25.17;;
7563;SDS011;3823;53.586;10.040;2023-07-29T06:10:13;32.97;;;26.70;;
7563;SDS011;3823;53.586;10.040;2023-07-29T06:12:42;29.98;;;25.60;;
7563;SDS011;3823;53.586;10.040;2023-07-29T06:15:08;29.67;;;23.98;;
7563;SDS011;3823;53.586;10.040;2023-07-29T06:17:34;31.27;;;25.70;;
7563;SDS011;3823;53.586;10.040;2023-07-29T06:19:59;35.63;;;27.13;;
7563;SDS011;3823;53.586;10.040;2023-07-29T06:22:25;35.75;;;26.42;;
7563;SDS011;3823;53.586;10.040;2023-07-29T06:24:50;33.92;;;26.13;;
7563;SDS011;3823;53.586;10.040;2023-07-29T06:27:16;31.98;;;23.80;;
7563;SDS011;3823;53.586;10.040;2023-07-29T06:29:41;27.15;;;23.05;;
7563;SDS011;3823;53.586;10.040;2023-07-29T06:32:07;24.50;;;19.98;;
7563;SDS011;3823;53.586;10.040;2023-07-29T06:34:32;26.23;;;21.10;;
7563;SDS011;3823;53.586;10.040;2023-07-29T06:36:58;27.20;;;21.80;;
7563;SDS011;3823;53.586;10.040;2023-07-29T06:39:23;22.83;;;19.50;;
7563;SDS011;3823;53.586;10.040;2023-07-29T06:41:49;25.88;;;18.55;;
7563;SDS011;3823;53.586;10.040;2023-07-29T06:44:15;23.63;;;19.38;;
7563;SDS011;3823;53.586;10.040;2023-07-29T06:46:40;26.05;;;19.05;;
7563;SDS011;3823;53.586;10.040;2023-07-29T06:49:06;20.80;;;18.40;;
7563;SDS011;3823;53.586;10.040;2023-07-29T06:51:31;21.98;;;18.73;;
7563;SDS011;3823;53.586;10.040;2023-07-29T06:54:00;22.55;;;18.27;;
7563;SDS011;3823;53.586;10.040;2023-07-29T06:56:26;23.75;;;17.17;;
7563;SDS011;3823;53.586;10.040;2023-07-29T06:58:52;20.95;;;17.77;;
7563;SDS011;3823;53.586;10.040;2023-07-29T07:01:17;23.48;;;17.60;;
7563;SDS011;3823;53.586;10.040;2023-07-29T07:03:43;19.92;;;16.60;;
7563;SDS011;3823;53.586;10.040;2023-07-29T07:06:08;21.48;;;18.38;;
7563;SDS011;3823;53.586;10.040;2023-07-29T07:08:34;23.45;;;16.30;;
7563;SDS011;3823;53.586;10.040;2023-07-29T07:10:59;21.05;;;17.02;;
7563;SDS011;3823;53.586;10.040;2023-07-29T07:13:25;22.55;;;17.20;;
7563;SDS011;3823;53.586;10.040;2023-07-29T07:15:51;19.92;;;16.02;;
7563;SDS011;3823;53.586;10.040;2023-07-29T07:18:20;20.45;;;16.77;;
7563;SDS011;3823;53.586;10.040;2023-07-29T07:20:48;24.58;;;17.98;;
7563;SDS011;3823;53.586;10.040;2023-07-29T07:23:14;21.10;;;17.40;;
7563;SDS011;3823;53.586;10.040;2023-07-29T07:25:40;22.67;;;18.08;;
7563;SDS011;3823;53.586;10.040;2023-07-29T07:28:07;17.60;;;15.70;;
7563;SDS011;3823;53.586;10.040;2023-07-29T07:30:33;18.95;;;16.88;;
7563;SDS011;3823;53.586;10.040;2023-07-29T07:32:58;25.98;;;18.13;;
7563;SDS011;3823;53.586;10.040;2023-07-29T07:35:24;22.27;;;18.35;;
7563;SDS011;3823;53.586;10.040;2023-07-29T07:37:49;23.17;;;18.10;;
7563;SDS011;3823;53.586;10.040;2023-07-29T07:40:15;28.27;;;20.20;;
7563;SDS011;3823;53.586;10.040;2023-07-29T07:42:41;25.08;;;19.63;;
7563;SDS011;3823;53.586;10.040;2023-07-29T07:45:06;23.17;;;19.17;;
7563;SDS011;3823;53.586;10.040;2023-07-29T07:47:32;21.17;;;17.98;;
7563;SDS011;3823;53.586;10.040;2023-07-29T07:49:57;26.33;;;18.95;;
7563;SDS011;3823;53.586;10.040;2023-07-29T07:52:23;22.15;;;17.40;;
7563;SDS011;3823;53.586;10.040;2023-07-29T07:54:52;21.50;;;17.45;;
7563;SDS011;3823;53.586;10.040;2023-07-29T07:57:22;19.85;;;15.93;;
7563;SDS011;3823;53.586;10.040;2023-07-29T07:59:48;19.60;;;16.92;;
7563;SDS011;3823;53.586;10.040;2023-07-29T08:02:14;21.15;;;15.40;;
7563;SDS011;3823;53.586;10.040;2023-07-29T08:04:39;18.65;;;15.35;;
7563;SDS011;3823;53.586;10.040;2023-07-29T08:07:05;17.92;;;15.55;;
7563;SDS011;3823;53.586;10.040;2023-07-29T08:09:30;16.33;;;13.82;;
7563;SDS011;3823;53.586;10.040;2023-07-29T08:11:56;18.60;;;15.82;;
7563;SDS011;3823;53.586;10.040;2023-07-29T08:14:22;18.17;;;15.48;;
7563;SDS011;3823;53.586;10.040;2023-07-29T08:16:47;16.10;;;14.50;;
7563;SDS011;3823;53.586;10.040;2023-07-29T08:19:13;18.63;;;15.75;;
7563;SDS011;3823;53.586;10.040;2023-07-29T08:21:38;17.42;;;15.63;;
7563;SDS011;3823;53.586;10.040;2023-07-29T08:24:04;16.33;;;14.63;;
7563;SDS011;3823;53.586;10.040;2023-07-29T08:26:29;17.55;;;14.68;;
7563;SDS011;3823;53.586;10.040;2023-07-29T08:28:55;17.98;;;14.45;;
7563;SDS011;3823;53.586;10.040;2023-07-29T08:31:20;16.80;;;13.75;;
7563;SDS011;3823;53.586;10.040;2023-07-29T08:33:46;16.58;;;14.57;;
7563;SDS011;3823;53.586;10.040;2023-07-29T08:36:12;17.42;;;14.73;;
7563;SDS011;3823;53.586;10.040;2023-07-29T08:38:37;16.67;;;14.32;;
7563;SDS011;3823;53.586;10.040;2023-07-29T08:43:51;17.98;;;16.08;;
7563;SDS011;3823;53.586;10.040;2023-07-29T08:46:21;18.67;;;15.00;;
7563;SDS011;3823;53.586;10.040;2023-07-29T08:48:47;19.25;;;16.20;;
7563;SDS011;3823;53.586;10.040;2023-07-29T08:51:12;16.50;;;14.75;;
7563;SDS011;3823;53.586;10.040;2023-07-29T08:53:39;16.40;;;14.70;;
7563;SDS011;3823;53.586;10.040;2023-07-29T08:56:05;20.92;;;15.02;;
7563;SDS011;3823;53.586;10.040;2023-07-29T08:58:32;16.10;;;14.48;;
7563;SDS011;3823;53.586;10.040;2023-07-29T09:00:58;17.55;;;15.20;;
7563;SDS011;3823;53.586;10.040;2023-07-29T09:03:24;17.15;;;15.05;;
7563;SDS011;3823;53.586;10.040;2023-07-29T09:05:50;16.52;;;14.93;;
7563;SDS011;3823;53.586;10.040;2023-07-29T09:08:15;16.52;;;14.82;;
7563;SDS011;3823;53.586;10.040;2023-07-29T09:10:41;17.88;;;15.98;;
7563;SDS011;3823;53.586;10.040;2023-07-29T09:13:07;17.10;;;15.20;;
7563;SDS011;3823;53.586;10.040;2023-07-29T09:15:34;16.42;;;14.68;;
7563;SDS011;3823;53.586;10.040;2023-07-29T09:18:11;17.40;;;14.48;;
7563;SDS011;3823;53.586;10.040;2023-07-29T09:20:39;17.40;;;14.80;;
7563;SDS011;3823;53.586;10.040;2023-07-29T09:23:07;16.58;;;14.65;;
7563;SDS011;3823;53.586;10.040;2023-07-29T09:25:35;18.20;;;14.75;;
7563;SDS011;3823;53.586;10.040;2023-07-29T09:28:01;15.43;;;13.80;;
7563;SDS011;3823;53.586;10.040;2023-07-29T09:30:32;13.50;;;12.20;;
7563;SDS011;3823;53.586;10.040;2023-07-29T09:32:57;15.52;;;12.43;;
7563;SDS011;3823;53.586;10.040;2023-07-29T09:35:24;18.85;;;14.07;;
7563;SDS011;3823;53.586;10.040;2023-07-29T09:37:52;15.65;;;13.27;;
7563;SDS011;3823;53.586;10.040;2023-07-29T09:40:19;14.98;;;12.05;;
7563;SDS011;3823;53.586;10.040;2023-07-29T09:42:48;13.30;;;11.70;;
7563;SDS011;3823;53.586;10.040;2023-07-29T09:45:22;13.68;;;11.88;;
7563;SDS011;3823;53.586;10.040;2023-07-29T09:47:49;15.07;;;12.52;;
7563;SDS011;3823;53.586;10.040;2023-07-29T09:50:15;12.57;;;10.30;;
7563;SDS011;3823;53.586;10.040;2023-07-29T09:52:41;11.60;;;10.40;;
7563;SDS011;3823;53.586;10.040;2023-07-29T09:55:09;11.18;;;10.00;;
7563;SDS011;3823;53.586;10.040;2023-07-29T09:57:38;12.10;;;10.23;;
7563;SDS011;3823;53.586;10.040;2023-07-29T10:00:05;11.18;;;10.15;;
7563;SDS011;3823;53.586;10.040;2023-07-29T10:02:36;10.70;;;9.60;;
7563;SDS011;3823;53.586;10.040;2023-07-29T10:05:06;10.48;;;9.20;;
7563;SDS011;3823;53.586;10.040;2023-07-29T10:07:33;8.25;;;7.53;;
7563;SDS011;3823;53.586;10.040;2023-07-29T10:10:06;12.15;;;6.95;;
7563;SDS011;3823;53.586;10.040;2023-07-29T10:12:33;6.95;;;6.28;;
7563;SDS011;3823;53.586;10.040;2023-07-29T10:15:00;7.18;;;5.88;;
7563;SDS011;3823;53.586;10.040;2023-07-29T10:17:28;6.85;;;6.13;;
7563;SDS011;3823;53.586;10.040;2023-07-29T10:19:55;5.95;;;5.50;;
7563;SDS011;3823;53.586;10.040;2023-07-29T10:22:22;4.70;;;4.40;;
7563;SDS011;3823;53.586;10.040;2023-07-29T10:24:53;7.25;;;4.95;;
7563;SDS011;3823;53.586;10.040;2023-07-29T10:27:24;4.80;;;4.40;;
7563;SDS011;3823;53.586;10.040;2023-07-29T10:29:51;5.05;;;4.63;;
7563;SDS011;3823;53.586;10.040;2023-07-29T10:32:20;4.35;;;3.95;;
7563;SDS011;3823;53.586;10.040;2023-07-29T10:34:50;4.93;;;4.18;;
7563;SDS011;3823;53.586;10.040;2023-07-29T10:37:16;4.18;;;3.88;;
7563;SDS011;3823;53.586;10.040;2023-07-29T10:39:51;4.45;;;4.15;;
7563;SDS011;3823;53.586;10.040;2023-07-29T10:42:18;4.72;;;4.32;;
7563;SDS011;3823;53.586;10.040;2023-07-29T10:44:47;4.45;;;4.15;;
7563;SDS011;3823;53.586;10.040;2023-07-29T10:49:41;4.28;;;3.97;;
7563;SDS011;3823;53.586;10.040;2023-07-29T10:52:06;4.10;;;3.90;;
7563;SDS011;3823;53.586;10.040;2023-07-29T10:54:45;4.32;;;4.03;;
7563;SDS011;3823;53.586;10.040;2023-07-29T10:57:13;5.32;;;4.97;;
7563;SDS011;3823;53.586;10.040;2023-07-29T10:59:40;5.03;;;4.63;;
7563;SDS011;3823;53.586;10.040;2023-07-29T11:02:17;6.40;;;4.65;;
7563;SDS011;3823;53.586;10.040;2023-07-29T11:04:48;4.10;;;3.80;;
7563;SDS011;3823;53.586;10.040;2023-07-29T11:17:47;4.88;;;4.47;;
7563;SDS011;3823;53.586;10.040;2023-07-29T11:20:13;3.80;;;3.50;;
7563;SDS011;3823;53.586;10.040;2023-07-29T11:22:40;4.13;;;3.83;;
7563;SDS011;3823;53.586;10.040;2023-07-29T11:25:07;3.97;;;3.47;;
7563;SDS011;3823;53.586;10.040;2023-07-29T11:27:34;3.85;;;3.53;;
7563;SDS011;3823;53.586;10.040;2023-07-29T11:30:02;3.47;;;3.28;;
7563;SDS011;3823;53.586;10.040;2023-07-29T11:32:30;4.80;;;3.95;;
7563;SDS011;3823;53.586;10.040;2023-07-29T11:34:56;3.60;;;3.30;;
7563;SDS011;3823;53.586;10.040;2023-07-29T11:37:22;2.97;;;2.78;;
7563;SDS011;3823;53.586;10.040;2023-07-29T11:39:47;3.58;;;2.10;;
7563;SDS011;3823;53.586;10.040;2023-07-29T11:42:13;2.88;;;2.53;;
7563;SDS011;3823;53.586;10.040;2023-07-29T11:44:39;3.25;;;2.22;;
7563;SDS011;3823;53.586;10.040;2023-07-29T11:47:06;2.42;;;2.22;;
7563;SDS011;3823;53.586;10.040;2023-07-29T11:49:33;2.80;;;2.60;;
7563;SDS011;3823;53.586;10.040;2023-07-29T11:51:59;3.88;;;3.58;;
7563;SDS011;3823;53.586;10.040;2023-07-29T11:54:25;3.28;;;3.08;;
7563;SDS011;3823;53.586;10.040;2023-07-29T11:56:51;2.35;;;2.25;;
7563;SDS011;3823;53.586;10.040;2023-07-29T11:59:16;2.80;;;2.60;;
7563;SDS011;3823;53.586;10.040;2023-07-29T12:01:42;2.72;;;2.53;;
7563;SDS011;3823;53.586;10.040;2023-07-29T12:04:08;2.92;;;2.60;;
7563;SDS011;3823;53.586;10.040;2023-07-29T12:06:34;2.65;;;2.45;;
7563;SDS011;3823;53.586;10.040;2023-07-29T12:09:00;3.08;;;2.78;;
7563;SDS011;3823;53.586;10.040;2023-07-29T12:11:25;3.10;;;2.60;;
7563;SDS011;3823;53.586;10.040;2023-07-29T12:13:53;2.63;;;2.42;;
7563;SDS011;3823;53.586;10.040;2023-07-29T12:16:19;2.70;;;2.50;;
7563;SDS011;3823;53.586;10.040;2023-07-29T12:18:44;3.35;;;3.05;;
7563;SDS011;3823;53.586;10.040;2023-07-29T12:21:10;2.30;;;2.15;;
7563;SDS011;3823;53.586;10.040;2023-07-29T12:23:35;2.38;;;2.17;;
7563;SDS011;3823;53.586;10.040;2023-07-29T12:26:01;2.63;;;2.42;;
7563;SDS011;3823;53.586;10.040;2023-07-29T12:28:27;2.28;;;2.08;;
7563;SDS011;3823;53.586;10.040;2023-07-29T12:30:53;2.22;;;2.13;;
7563;SDS011;3823;53.586;10.040;2023-07-29T12:33:29;3.85;;;2.30;;
7563;SDS011;3823;53.586;10.040;2023-07-29T12:35:56;1.90;;;1.80;;
7563;SDS011;3823;53.586;10.040;2023-07-29T12:38:21;3.03;;;1.95;;
7563;SDS011;3823;53.586;10.040;2023-07-29T12:40:47;2.30;;;2.10;;
7563;SDS011;3823;53.586;10.040;2023-07-29T12:43:13;2.20;;;2.00;;
7563;SDS011;3823;53.586;10.040;2023-07-29T12:45:38;4.95;;;2.15;;
7563;SDS011;3823;53.586;10.040;2023-07-29T12:48:07;4.00;;;1.70;;
7563;SDS011;3823;53.586;10.040;2023-07-29T12:50:33;2.35;;;1.65;;
7563;SDS011;3823;53.586;10.040;2023-07-29T12:52:59;1.92;;;1.83;;
7563;SDS011;3823;53.586;10.040;2023-07-29T12:55:24;3.50;;;2.47;;
7563;SDS011;3823;53.586;10.040;2023-07-29T12:57:50;2.45;;;1.48;;
7563;SDS011;3823;53.586;10.040;2023-07-29T13:00:16;2.95;;;1.33;;
7563;SDS011;3823;53.586;10.040;2023-07-29T13:02:41;2.25;;;1.50;;
7563;SDS011;3823;53.586;10.040;2023-07-29T13:05:09;1.70;;;1.60;;
7563;SDS011;3823;53.586;10.040;2023-07-29T13:07:36;1.38;;;1.27;;
7563;SDS011;3823;53.586;10.040;2023-07-29T13:10:05;3.22;;;1.83;;
7563;SDS011;3823;53.586;10.040;2023-07-29T13:12:32;1.63;;;1.40;;
7563;SDS011;3823;53.586;10.040;2023-07-29T13:14:57;1.90;;;1.63;;
7563;SDS011;3823;53.586;10.040;2023-07-29T13:17:23;2.03;;;1.70;;
7563;SDS011;3823;53.586;10.040;2023-07-29T13:19:48;2.20;;;1.17;;
7563;SDS011;3823;53.586;10.040;2023-07-29T13:22:14;2.00;;;1.60;;
7563;SDS011;3823;53.586;10.040;2023-07-29T13:24:40;1.70;;;1.42;;
7563;SDS011;3823;53.586;10.040;2023-07-29T13:27:06;1.60;;;1.45;;
7563;SDS011;3823;53.586;10.040;2023-07-29T13:29:31;3.80;;;1.60;;
7563;SDS011;3823;53.586;10.040;2023-07-29T13:31:57;1.70;;;1.38;;
7563;SDS011;3823;53.586;10.040;2023-07-29T13:34:22;3.08;;;2.22;;
7563;SDS011;3823;53.586;10.040;2023-07-29T13:36:48;2.00;;;1.80;;
7563;SDS011;3823;53.586;10.040;2023-07-29T13:39:13;2.17;;;1.80;;
7563;SDS011;3823;53.586;10.040;2023-07-29T13:41:39;2.30;;;2.10;;
7563;SDS011;3823;53.586;10.040;2023-07-29T13:44:04;2.50;;;1.95;;
7563;SDS011;3823;53.586;10.040;2023-07-29T13:46:30;2.53;;;2.33;;
7563;SDS011;3823;53.586;10.040;2023-07-29T13:48:55;2.60;;;1.80;;
7563;SDS011;3823;53.586;10.040;2023-07-29T13:51:21;2.13;;;1.90;;
7563;SDS011;3823;53.586;10.040;2023-07-29T13:53:46;3.03;;;1.40;;
7563;SDS011;3823;53.586;10.040;2023-07-29T13:56:12;2.20;;;1.90;;
7563;SDS011;3823;53.586;10.040;2023-07-29T13:58:38;2.63;;;1.63;;
7563;SDS011;3823;53.586;10.040;2023-07-29T14:01:03;3.10;;;1.52;;
7563;SDS011;3823;53.586;10.040;2023-07-29T14:03:29;2.22;;;1.38;;
7563;SDS011;3823;53.586;10.040;2023-07-29T14:05:54;1.73;;;1.40;;
7563;SDS011;3823;53.586;10.040;2023-07-29T14:08:20;1.60;;;1.50;;
7563;SDS011;3823;53.586;10.040;2023-07-29T14:10:48;3.35;;;1.65;;
7563;SDS011;3823;53.586;10.040;2023-07-29T14:13:14;1.65;;;1.52;;
7563;SDS011;3823;53.586;10.040;2023-07-29T14:15:39;2.78;;;2.47;;
7563;SDS011;3823;53.586;10.040;2023-07-29T14:18:05;2.53;;;1.50;;
7563;SDS011;3823;53.586;10.040;2023-07-29T14:20:31;2.15;;;1.83;;
7563;SDS011;3823;53.586;10.040;2023-07-29T14:22:57;1.95;;;1.77;;
7563;SDS011;3823;53.586;10.040;2023-07-29T14:25:23;2.95;;;1.42;;
7563;SDS011;3823;53.586;10.040;2023-07-29T14:27:49;2.55;;;2.35;;
7563;SDS011;3823;53.586;10.040;2023-07-29T14:30:15;2.80;;;1.88;;
7563;SDS011;3823;53.586;10.040;2023-07-29T14:32:41;4.28;;;2.00;;
7563;SDS011;3823;53.586;10.040;2023-07-29T14:35:06;2.00;;;1.73;;
7563;SDS011;3823;53.586;10.040;2023-07-29T14:37:33;1.63;;;1.52;;
7563;SDS011;3823;53.586;10.040;2023-07-29T14:39:59;6.38;;;2.15;;
7563;SDS011;3823;53.586;10.040;2023-07-29T14:42:25;5.22;;;2.10;;
7563;SDS011;3823;53.586;10.040;2023-07-29T14:44:51;3.15;;;1.95;;
7563;SDS011;3823;53.586;10.040;2023-07-29T14:47:17;2.50;;;1.40;;
7563;SDS011;3823;53.586;10.040;2023-07-29T14:49:43;2.85;;;1.73;;
7563;SDS011;3823;53.586;10.040;2023-07-29T14:52:09;2.20;;;2.00;;
7563;SDS011;3823;53.586;10.040;2023-07-29T14:54:35;3.05;;;1.70;;
7563;SDS011;3823;53.586;10.040;2023-07-29T14:57:00;2.40;;;1.90;;
7563;SDS011;3823;53.586;10.040;2023-07-29T14:59:26;2.08;;;1.70;;
7563;SDS011;3823;53.586;10.040;2023-07-29T15:01:52;1.85;;;1.65;;
7563;SDS011;3823;53.586;10.040;2023-07-29T15:04:17;2.08;;;1.88;;
7563;SDS011;3823;53.586;10.040;2023-07-29T15:06:43;1.75;;;1.65;;
7563;SDS011;3823;53.586;10.040;2023-07-29T15:09:09;2.83;;;1.98;;
7563;SDS011;3823;53.586;10.040;2023-07-29T15:11:34;2.72;;;1.60;;
7563;SDS011;3823;53.586;10.040;2023-07-29T15:14:01;3.67;;;1.30;;
7563;SDS011;3823;53.586;10.040;2023-07-29T15:16:28;1.77;;;1.45;;
7563;SDS011;3823;53.586;10.040;2023-07-29T15:18:54;1.83;;;1.73;;
7563;SDS011;3823;53.586;10.040;2023-07-29T15:21:19;1.70;;;1.50;;
7563;SDS011;3823;53.586;10.040;2023-07-29T15:23:45;1.83;;;1.70;;
7563;SDS011;3823;53.586;10.040;2023-07-29T15:26:11;2.50;;;1.48;;
7563;SDS011;3823;53.586;10.040;2023-07-29T15:28:36;2.05;;;1.77;;
7563;SDS011;3823;53.586;10.040;2023-07-29T15:31:02;1.65;;;1.55;;
7563;SDS011;3823;53.586;10.040;2023-07-29T15:33:28;1.30;;;1.20;;
7563;SDS011;3823;53.586;10.040;2023-07-29T15:35:53;1.95;;;1.50;;
7563;SDS011;3823;53.586;10.040;2023-07-29T15:38:19;1.60;;;1.45;;
7563;SDS011;3823;53.586;10.040;2023-07-29T15:40:44;2.25;;;1.63;;
7563;SDS011;3823;53.586;10.040;2023-07-29T15:43:10;2.85;;;1.60;;
7563;SDS011;3823;53.586;10.040;2023-07-29T15:45:35;2.25;;;1.70;;
7563;SDS011;3823;53.586;10.040;2023-07-29T15:48:01;2.08;;;1.95;;
7563;SDS011;3823;53.586;10.040;2023-07-29T15:50:27;1.88;;;1.70;;
7563;SDS011;3823;53.586;10.040;2023-07-29T15:52:53;1.98;;;1.88;;
7563;SDS011;3823;53.586;10.040;2023-07-29T15:55:19;2.70;;;1.85;;
7563;SDS011;3823;53.586;10.040;2023-07-29T15:57:45;2.20;;;2.00;;
7563;SDS011;3823;53.586;10.040;2023-07-29T16:00:11;2.65;;;1.77;;
7563;SDS011;3823;53.586;10.040;2023-07-29T16:02:37;2.38;;;1.80;;
7563;SDS011;3823;53.586;10.040;2023-07-29T16:05:04;2.65;;;1.65;;
7563;SDS011;3823;53.586;10.040;2023-07-29T16:07:32;2.25;;;1.92;;
7563;SDS011;3823;53.586;10.040;2023-07-29T16:09:58;2.67;;;1.70;;
7563;SDS011;3823;53.586;10.040;2023-07-29T16:12:24;2.67;;;2.47;;
7563;SDS011;3823;53.586;10.040;2023-07-29T16:14:49;2.35;;;2.15;;
7563;SDS011;3823;53.586;10.040;2023-07-29T16:17:16;3.55;;;2.70;;
7563;SDS011;3823;53.586;10.040;2023-07-29T16:19:55;2.90;;;2.58;;
7563;SDS011;3823;53.586;10.040;2023-07-29T16:22:22;2.40;;;2.03;;
7563;SDS011;3823;53.586;10.040;2023-07-29T16:24:47;1.63;;;1.25;;
7563;SDS011;3823;53.586;10.040;2023-07-29T16:27:13;4.20;;;1.10;;
7563;SDS011;3823;53.586;10.040;2023-07-29T16:29:40;2.30;;;1.10;;
7563;SDS011;3823;53.586;10.040;2023-07-29T16:32:05;1.30;;;1.00;;
7563;SDS011;3823;53.586;10.040;2023-07-29T16:34:31;2.75;;;1.55;;
7563;SDS011;3823;53.586;10.040;2023-07-29T16:36:57;2.50;;;1.20;;
7563;SDS011;3823;53.586;10.040;2023-07-29T16:39:22;1.50;;;1.08;;
7563;SDS011;3823;53.586;10.040;2023-07-29T16:41:48;1.83;;;1.33;;
7563;SDS011;3823;53.586;10.040;2023-07-29T16:44:13;1.50;;;1.23;;
7563;SDS011;3823;53.586;10.040;2023-07-29T16:46:39;2.10;;;1.90;;
7563;SDS011;3823;53.586;10.040;2023-07-29T16:49:04;2.10;;;1.90;;
7563;SDS011;3823;53.586;10.040;2023-07-29T16:51:30;2.17;;;1.50;;
7563;SDS011;3823;53.586;10.040;2023-07-29T16:53:55;4.78;;;2.03;;
7563;SDS011;3823;53.586;10.040;2023-07-29T16:56:21;2.15;;;1.33;;
7563;SDS011;3823;53.586;10.040;2023-07-29T16:58:47;1.63;;;1.52;;
7563;SDS011;3823;53.586;10.040;2023-07-29T17:01:13;2.70;;;1.80;;
7563;SDS011;3823;53.586;10.040;2023-07-29T17:03:38;2.03;;;1.90;;
7563;SDS011;3823;53.586;10.040;2023-07-29T17:06:04;2.28;;;1.50;;
7563;SDS011;3823;53.586;10.040;2023-07-29T17:08:30;1.52;;;1.42;;
7563;SDS011;3823;53.586;10.040;2023-07-29T17:10:56;3.15;;;2.35;;
7563;SDS011;3823;53.586;10.040;2023-07-29T17:13:21;6.70;;;2.45;;
7563;SDS011;3823;53.586;10.040;2023-07-29T17:15:47;6.07;;;3.42;;
7563;SDS011;3823;53.586;10.040;2023-07-29T17:18:13;3.90;;;2.17;;
7563;SDS011;3823;53.586;10.040;2023-07-29T17:20:39;1.77;;;1.58;;
7563;SDS011;3823;53.586;10.040;2023-07-29T17:23:04;2.05;;;1.70;;
7563;SDS011;3823;53.586;10.040;2023-07-29T17:25:30;4.90;;;1.52;;
7563;SDS011;3823;53.586;10.040;2023-07-29T17:27:56;2.50;;;1.85;;
7563;SDS011;3823;53.586;10.040;2023-07-29T17:30:22;2.25;;;2.05;;
7563;SDS011;3823;53.586;10.040;2023-07-29T17:32:49;2.90;;;1.92;;
7563;SDS011;3823;53.586;10.040;2023-07-29T17:35:15;6.05;;;2.15;;
7563;SDS011;3823;53.586;10.040;2023-07-29T17:37:42;5.78;;;2.15;;
7563;SDS011;3823;53.586;10.040;2023-07-29T17:40:08;2.17;;;1.98;;
7563;SDS011;3823;53.586;10.040;2023-07-29T17:42:34;8.50;;;2.30;;
7563;SDS011;3823;53.586;10.040;2023-07-29T17:44:59;2.00;;;1.80;;
7563;SDS011;3823;53.586;10.040;2023-07-29T17:47:25;2.60;;;2.20;;
7563;SDS011;3823;53.586;10.040;2023-07-29T17:49:50;4.25;;;2.97;;
7563;SDS011;3823;53.586;10.040;2023-07-29T17:52:16;3.45;;;2.03;;
7563;SDS011;3823;53.586;10.040;2023-07-29T17:54:42;2.83;;;2.50;;
7563;SDS011;3823;53.586;10.040;2023-07-29T17:57:07;3.95;;;2.97;;
7563;SDS011;3823;53.586;10.040;2023-07-29T17:59:33;3.53;;;3.22;;
7563;SDS011;3823;53.586;10.040;2023-07-29T18:01:59;3.58;;;3.28;;
7563;SDS011;3823;53.586;10.040;2023-07-29T18:04:25;3.92;;;3.53;;
7563;SDS011;3823;53.586;10.040;2023-07-29T18:06:50;3.13;;;2.92;;
7563;SDS011;3823;53.586;10.040;2023-07-29T18:09:16;7.00;;;3.10;;
7563;SDS011;3823;53.586;10.040;2023-07-29T18:11:42;2.95;;;2.75;;
7563;SDS011;3823;53.586;10.040;2023-07-29T18:14:07;5.07;;;2.92;;
7563;SDS011;3823;53.586;10.040;2023-07-29T18:16:33;3.72;;;3.42;;
7563;SDS011;3823;53.586;10.040;2023-07-29T18:19:01;4.63;;;3.40;;
7563;SDS011;3823;53.586;10.040;2023-07-29T18:21:27;4.05;;;3.08;;
7563;SDS011;3823;53.586;10.040;2023-07-29T18:23:53;5.00;;;3.83;;
7563;SDS011;3823;53.586;10.040;2023-07-29T18:26:18;6.22;;;3.58;;
7563;SDS011;3823;53.586;10.040;2023-07-29T18:28:44;4.05;;;2.92;;
7563;SDS011;3823;53.586;10.040;2023-07-29T18:31:09;3.83;;;3.53;;
7563;SDS011;3823;53.586;10.040;2023-07-29T18:33:35;2.67;;;2.40;;
7563;SDS011;3823;53.586;10.040;2023-07-29T18:36:01;5.10;;;2.95;;
7563;SDS011;3823;53.586;10.040;2023-07-29T18:38:28;4.10;;;3.70;;
7563;SDS011;3823;53.586;10.040;2023-07-29T18:40:54;3.67;;;2.72;;
7563;SDS011;3823;53.586;10.040;2023-07-29T18:43:20;2.80;;;2.60;;
7563;SDS011;3823;53.586;10.040;2023-07-29T18:45:45;3.25;;;2.95;;
7563;SDS011;3823;53.586;10.040;2023-07-29T18:48:11;3.97;;;2.88;;
7563;SDS011;3823;53.586;10.040;2023-07-29T18:50:36;2.55;;;2.35;;
7563;SDS011;3823;53.586;10.040;2023-07-29T18:53:02;4.53;;;2.45;;
7563;SDS011;3823;53.586;10.040;2023-07-29T18:55:27;7.13;;;2.88;;
7563;SDS011;3823;53.586;10.040;2023-07-29T18:57:56;2.33;;;2.13;;
7563;SDS011;3823;53.586;10.040;2023-07-29T19:00:22;2.70;;;2.50;;